createdAt,value
2017-07-23T00:00:53.471Z,96793.38
2017-07-23T00:03:21.137Z,96792.48
2017-07-23T00:05:48.814Z,96798.55
2017-07-23T00:08:16.547Z,96795.17
2017-07-23T00:10:44.278Z,96797.73
2017-07-23T00:13:11.932Z,96806.38
2017-07-23T00:15:39.555Z,96801.17
2017-07-23T00:18:07.200Z,96796.02
2017-07-23T00:20:34.886Z,96800.05
2017-07-23T00:23:02.521Z,96806.08
2017-07-23T00:25:30.179Z,96807.91
2017-07-23T00:27:57.829Z,96815.58
2017-07-23T00:30:25.447Z,96810.91
2017-07-23T00:32:53.097Z,96817.84
2017-07-23T00:35:20.762Z,96811.92
2017-07-23T00:37:48.412Z,96810.31
2017-07-23T00:40:16.132Z,96817.14
2017-07-23T00:42:43.807Z,96824.50
2017-07-23T00:45:11.460Z,96824.88
2017-07-23T00:47:39.080Z,96835.55
2017-07-23T00:50:06.741Z,96836.03
2017-07-23T00:52:34.371Z,96837.44
2017-07-23T00:55:02.021Z,96842.21
2017-07-23T00:57:29.663Z,96845.64
2017-07-23T00:59:57.323Z,96847.86
2017-07-23T01:02:24.973Z,96857.79
2017-07-23T01:04:52.613Z,96861.70
2017-07-23T01:07:20.228Z,96872.48
2017-07-23T01:09:47.871Z,96912.42
2017-07-23T01:12:15.482Z,96927.61
2017-07-23T01:14:43.116Z,96930.66
2017-07-23T01:17:10.751Z,96926.69
2017-07-23T01:19:38.391Z,96924.39
2017-07-23T01:22:06.004Z,96928.53
2017-07-23T01:24:33.762Z,96941.69
2017-07-23T01:27:01.439Z,96939.38
2017-07-23T01:29:29.091Z,96942.67
2017-07-23T01:31:56.694Z,96951.95
2017-07-23T01:34:24.362Z,96957.86
2017-07-23T01:36:51.985Z,96976.23
2017-07-23T01:39:19.635Z,96990.45
2017-07-23T01:41:47.263Z,96999.44
2017-07-23T01:44:14.899Z,96991.75
2017-07-23T01:46:42.622Z,97003.98
2017-07-23T01:49:10.274Z,97014.50
2017-07-23T01:51:37.922Z,97023.34
2017-07-23T01:54:05.606Z,97026.27
2017-07-23T01:56:33.224Z,97036.05
2017-07-23T01:59:00.907Z,97034.08
2017-07-23T02:01:28.697Z,97037.70
2017-07-23T02:03:56.327Z,97042.61
2017-07-23T02:06:23.985Z,97044.98
2017-07-23T02:08:51.649Z,97046.02
2017-07-23T02:11:19.306Z,97046.06
2017-07-23T02:13:47.317Z,97053.31
2017-07-23T02:16:14.943Z,97055.93
2017-07-23T02:18:42.572Z,97055.12
2017-07-23T02:21:10.230Z,97059.02
2017-07-23T02:23:37.868Z,97058.72
2017-07-23T02:26:05.517Z,97052.88
2017-07-23T02:28:33.144Z,97063.39
2017-07-23T02:31:00.792Z,97059.57
2017-07-23T02:33:28.434Z,97055.02
2017-07-23T02:35:56.142Z,97058.97
2017-07-23T02:38:23.837Z,97060.73
2017-07-23T02:40:51.605Z,97056.05
2017-07-23T02:43:19.414Z,97048.02
2017-07-23T02:45:47.148Z,97052.27
2017-07-23T02:48:14.823Z,97042.89
2017-07-23T02:50:42.540Z,97037.86
2017-07-23T02:53:10.288Z,97027.23
2017-07-23T02:55:39.017Z,97031.13
2017-07-23T02:58:06.706Z,97025.16
2017-07-23T03:00:34.386Z,97016.16
2017-07-23T03:03:02.060Z,97014.84
2017-07-23T03:05:29.762Z,97019.50
2017-07-23T03:07:57.399Z,97013.00
2017-07-23T03:10:25.067Z,97015.14
2017-07-23T03:12:52.694Z,97011.37
2017-07-23T03:15:20.354Z,96998.97
2017-07-23T03:17:47.999Z,97004.04
2017-07-23T03:20:15.669Z,97015.53
2017-07-23T03:22:43.297Z,97027.95
2017-07-23T03:25:10.982Z,97022.43
2017-07-23T03:27:38.606Z,97016.55
2017-07-23T03:30:06.293Z,97016.62
2017-07-23T03:32:33.965Z,97007.28
2017-07-23T03:35:01.637Z,96999.95
2017-07-23T03:37:29.316Z,96995.28
2017-07-23T03:39:57.007Z,96994.34
2017-07-23T03:42:24.637Z,96991.73
2017-07-23T03:44:52.579Z,96999.61
2017-07-23T03:47:20.225Z,96999.77
2017-07-23T03:49:47.920Z,97008.38
2017-07-23T03:52:15.578Z,97017.45
2017-07-23T03:54:43.230Z,97030.81
2017-07-23T03:57:10.885Z,97016.75
2017-07-23T03:59:38.507Z,97026.64
2017-07-23T04:02:06.161Z,97028.47
2017-07-23T04:04:33.813Z,97022.52
2017-07-23T04:07:01.508Z,97020.45
2017-07-23T04:09:29.182Z,97021.81
2017-07-23T04:11:56.856Z,97023.09
2017-07-23T04:14:24.507Z,97012.84
2017-07-23T04:16:52.264Z,97021.09
2017-07-23T04:19:19.888Z,97020.42
2017-07-23T04:21:47.532Z,97022.09
2017-07-23T04:24:15.217Z,97014.81
2017-07-23T04:26:42.867Z,97017.81
2017-07-23T04:29:10.496Z,97021.20
2017-07-23T04:31:38.185Z,97028.41
2017-07-23T04:34:05.848Z,97027.20
2017-07-23T04:36:33.535Z,97043.94
2017-07-23T04:39:01.163Z,97053.39
2017-07-23T04:41:28.826Z,97061.14
2017-07-23T04:43:56.465Z,97056.42
2017-07-23T04:46:24.123Z,97054.28
2017-07-23T04:48:51.745Z,97057.25
2017-07-23T04:51:19.469Z,97063.95
2017-07-23T04:53:47.089Z,97063.81
2017-07-23T04:56:14.727Z,97063.31
2017-07-23T04:58:42.531Z,97053.31
2017-07-23T05:01:10.182Z,97047.21
2017-07-23T05:03:37.807Z,97055.70
2017-07-23T05:06:05.447Z,97051.73
2017-07-23T05:08:33.068Z,97061.05
2017-07-23T05:11:00.717Z,97066.03
2017-07-23T05:13:28.345Z,97079.05
2017-07-23T05:15:55.954Z,97090.86
2017-07-23T05:18:23.626Z,97092.14
2017-07-23T05:20:51.270Z,97103.68
2017-07-23T05:23:18.919Z,97105.31
2017-07-23T05:25:46.539Z,97094.05
2017-07-23T05:28:14.216Z,97095.95
2017-07-23T05:30:41.814Z,97076.64
2017-07-23T05:33:09.454Z,97067.98
2017-07-23T05:35:37.074Z,97061.93
2017-07-23T05:38:04.808Z,97064.08
2017-07-23T05:40:32.472Z,97071.84
2017-07-23T05:43:00.127Z,97075.50
2017-07-23T05:45:27.739Z,97076.27
2017-07-23T05:47:55.373Z,97079.95
2017-07-23T05:50:22.971Z,97072.84
2017-07-23T05:52:50.913Z,97064.03
2017-07-23T05:55:18.662Z,97067.33
2017-07-23T05:57:46.308Z,97066.28
2017-07-23T06:00:13.952Z,97070.23
2017-07-23T06:02:41.657Z,97075.14
2017-07-23T06:05:09.299Z,97094.20
2017-07-23T06:07:37.004Z,97083.13
2017-07-23T06:10:04.622Z,97080.17
2017-07-23T06:12:32.254Z,97079.73
2017-07-23T06:14:59.879Z,97077.59
2017-07-23T06:17:27.912Z,97086.22
2017-07-23T06:19:55.598Z,97087.12
2017-07-23T06:22:23.222Z,97086.22
2017-07-23T06:24:50.869Z,97083.73
2017-07-23T06:27:18.506Z,97096.61
2017-07-23T06:29:46.123Z,97090.72
2017-07-23T06:32:13.757Z,97098.91
2017-07-23T06:34:41.419Z,97099.86
2017-07-23T06:37:09.046Z,97099.05
2017-07-23T06:39:37.061Z,97093.55
2017-07-23T06:42:04.714Z,97095.23
2017-07-23T06:44:32.329Z,97109.85
2017-07-23T06:46:59.983Z,97114.17
2017-07-23T06:49:27.603Z,97103.03
2017-07-23T06:51:55.521Z,97095.27
2017-07-23T06:54:23.139Z,97092.86
2017-07-23T06:56:50.782Z,97092.70
2017-07-23T06:59:18.522Z,97087.12
2017-07-23T07:01:46.190Z,97086.52
2017-07-23T07:04:13.837Z,97090.67
2017-07-23T07:06:41.463Z,97079.29
2017-07-23T07:09:09.088Z,97080.50
2017-07-23T07:11:36.813Z,97092.29
2017-07-23T07:14:04.516Z,97092.52
2017-07-23T07:16:32.230Z,97091.47
2017-07-23T07:19:00.283Z,97089.44
2017-07-23T07:21:27.899Z,97090.52
2017-07-23T07:23:56.486Z,97094.63
2017-07-23T07:26:24.175Z,97090.66
2017-07-23T07:28:51.806Z,97086.18
2017-07-23T07:31:19.447Z,97082.91
2017-07-23T07:33:47.086Z,97092.77
2017-07-23T07:36:15.267Z,97094.23
2017-07-23T07:38:42.878Z,97098.89
2017-07-23T07:41:10.560Z,97102.39
2017-07-23T07:43:38.203Z,97105.45
2017-07-23T07:46:05.826Z,97106.33
2017-07-23T07:48:33.751Z,97112.72
2017-07-23T07:51:01.505Z,97117.07
2017-07-23T07:53:29.151Z,97101.11
2017-07-23T07:55:56.807Z,97096.69
2017-07-23T07:58:24.436Z,97099.02
2017-07-23T08:00:52.107Z,97105.89
2017-07-23T08:03:19.710Z,97106.86
2017-07-23T08:05:47.431Z,97111.77
2017-07-23T08:08:15.032Z,97106.75
2017-07-23T08:10:42.950Z,97106.92
2017-07-23T08:13:10.592Z,97119.87
2017-07-23T08:15:38.239Z,97113.35
2017-07-23T08:18:05.923Z,97116.05
2017-07-23T08:20:33.577Z,97112.34
2017-07-23T08:23:01.251Z,97113.37
2017-07-23T08:25:28.921Z,97109.61
2017-07-23T08:27:56.913Z,97106.38
2017-07-23T08:30:24.636Z,97098.69
2017-07-23T08:32:52.254Z,97097.02
2017-07-23T08:35:19.933Z,97113.25
2017-07-23T08:37:47.563Z,97113.34
2017-07-23T08:40:15.227Z,97111.59
2017-07-23T08:42:42.850Z,97110.17
2017-07-23T08:45:10.520Z,97101.39
2017-07-23T08:47:38.334Z,97104.83
2017-07-23T08:50:06.016Z,97110.17
2017-07-23T08:52:33.692Z,97110.00
2017-07-23T08:55:01.380Z,97116.47
2017-07-23T08:57:29.016Z,97113.36
2017-07-23T08:59:56.675Z,97106.77
2017-07-23T09:02:24.332Z,97103.73
2017-07-23T09:04:51.963Z,97101.23
2017-07-23T09:07:19.603Z,97100.84
2017-07-23T09:09:47.319Z,97095.55
2017-07-23T09:12:15.306Z,97097.02
2017-07-23T09:14:42.936Z,97100.72
2017-07-23T09:17:10.598Z,97084.63
2017-07-23T09:19:38.229Z,97092.34
2017-07-23T09:22:05.859Z,97092.41
2017-07-23T09:24:33.493Z,97089.91
2017-07-23T09:27:01.136Z,97085.64
2017-07-23T09:29:29.077Z,97102.58
2017-07-23T09:31:56.698Z,97090.33
2017-07-23T09:34:24.352Z,97099.33
2017-07-23T09:36:52.026Z,97093.72
2017-07-23T09:39:19.721Z,97103.91
2017-07-23T09:41:47.412Z,97100.55
2017-07-23T09:44:15.046Z,97093.98
2017-07-23T09:46:42.689Z,97090.83
2017-07-23T09:49:10.368Z,97099.53
2017-07-23T09:51:39.245Z,97104.83
2017-07-23T09:54:06.882Z,97098.23
2017-07-23T09:56:34.541Z,97102.65
2017-07-23T09:59:02.194Z,97101.30
2017-07-23T10:01:29.834Z,97105.34
2017-07-23T10:03:57.452Z,97108.97
2017-07-23T10:06:25.159Z,97099.19
2017-07-23T10:08:53.035Z,97102.08
2017-07-23T10:11:21.172Z,97109.59
2017-07-23T10:13:48.817Z,97114.71
2017-07-23T10:16:16.634Z,97117.40
2017-07-23T10:18:44.792Z,97112.94
2017-07-23T10:21:12.448Z,97115.10
2017-07-23T10:23:40.071Z,97114.09
2017-07-23T10:26:07.735Z,97118.41
2017-07-23T10:28:35.393Z,97113.23
2017-07-23T10:31:03.039Z,97110.25
2017-07-23T10:33:30.664Z,97102.19
2017-07-23T10:35:58.333Z,97115.06
2017-07-23T10:38:26.493Z,97115.80
2017-07-23T10:40:54.125Z,97107.09
2017-07-23T10:43:21.778Z,97105.84
2017-07-23T10:45:49.430Z,97106.48
2017-07-23T10:48:17.122Z,97107.63
2017-07-23T10:50:44.794Z,97109.56
2017-07-23T10:53:12.435Z,97111.98
2017-07-23T10:55:40.075Z,97110.17
2017-07-23T10:58:10.035Z,97109.20
2017-07-23T11:00:37.787Z,97102.91
2017-07-23T11:03:05.462Z,97110.19
2017-07-23T11:05:33.119Z,97105.67
2017-07-23T11:08:01.278Z,97108.73
2017-07-23T11:10:28.938Z,97106.38
2017-07-23T11:12:56.586Z,97105.67
2017-07-23T11:15:24.248Z,97103.79
2017-07-23T11:17:52.040Z,97102.70
2017-07-23T11:20:20.932Z,97097.67
2017-07-23T11:22:50.001Z,97096.09
2017-07-23T11:25:17.657Z,97095.99
2017-07-23T11:27:45.311Z,97093.73
2017-07-23T11:30:12.948Z,97082.73
2017-07-23T11:32:40.630Z,97082.17
2017-07-23T11:35:08.343Z,97089.95
2017-07-23T11:37:36.010Z,97081.41
2017-07-23T11:40:03.745Z,97082.64
2017-07-23T11:42:31.394Z,97077.00
2017-07-23T11:44:59.031Z,97076.88
2017-07-23T11:47:26.734Z,97074.40
2017-07-23T11:49:54.382Z,97074.55
2017-07-23T11:52:22.035Z,97073.71
2017-07-23T11:54:49.788Z,97066.02
2017-07-23T11:57:18.744Z,97069.96
2017-07-23T11:59:46.827Z,97070.86
2017-07-23T12:02:14.512Z,97067.16
2017-07-23T12:04:42.144Z,97069.78
2017-07-23T12:07:09.849Z,97063.88
2017-07-23T12:09:37.704Z,97065.41
2017-07-23T12:12:05.404Z,97060.70
2017-07-23T12:14:33.398Z,97056.52
2017-07-23T12:17:01.172Z,97059.48
2017-07-23T12:19:28.783Z,97055.49
2017-07-23T12:21:56.585Z,97061.62
2017-07-23T12:24:24.242Z,97052.34
2017-07-23T12:26:52.248Z,97057.95
2017-07-23T12:29:19.980Z,97062.57
2017-07-23T12:31:47.682Z,97057.35
2017-07-23T12:34:15.546Z,97050.53
2017-07-23T12:36:43.325Z,97048.19
2017-07-23T12:39:10.989Z,97052.17
2017-07-23T12:41:38.678Z,97051.83
2017-07-23T12:44:06.330Z,97053.26
2017-07-23T12:46:33.995Z,97046.91
2017-07-23T12:49:01.638Z,97058.59
2017-07-23T12:51:29.338Z,97053.70
2017-07-23T12:53:57.062Z,97052.05
2017-07-23T12:56:24.720Z,97047.66
2017-07-23T12:58:53.822Z,97040.02
2017-07-23T13:01:21.467Z,97051.36
2017-07-23T13:03:49.204Z,97051.27
2017-07-23T13:06:16.859Z,97057.78
2017-07-23T13:08:44.819Z,97058.81
2017-07-23T13:13:46.578Z,97057.87
2017-07-23T13:16:14.208Z,97062.02
2017-07-23T13:18:42.257Z,97054.83
2017-07-23T13:21:09.926Z,97059.88
2017-07-23T13:23:37.535Z,97061.78
2017-07-23T13:26:05.165Z,97060.63
2017-07-23T13:28:32.786Z,97060.70
2017-07-23T13:31:00.516Z,97057.63
2017-07-23T13:33:28.118Z,97051.05
2017-07-23T13:35:55.763Z,97055.64
2017-07-23T13:38:23.420Z,97057.47
2017-07-23T13:40:51.534Z,97053.70
2017-07-23T13:43:19.221Z,97046.11
2017-07-23T13:45:47.180Z,97045.48
2017-07-23T13:48:14.820Z,97039.59
2017-07-23T13:50:42.486Z,97037.09
2017-07-23T13:53:10.227Z,97030.70
2017-07-23T13:55:37.888Z,97026.41
2017-07-23T13:58:05.541Z,97028.14
2017-07-23T14:00:33.181Z,97032.77
2017-07-23T14:03:00.985Z,97029.30
2017-07-23T14:05:28.645Z,97030.26
2017-07-23T14:07:56.271Z,97035.37
2017-07-23T14:10:23.941Z,97022.97
2017-07-23T14:12:51.871Z,97024.56
2017-07-23T14:15:19.534Z,97018.03
2017-07-23T14:17:47.194Z,97013.28
2017-07-23T14:20:15.488Z,97006.09
2017-07-23T14:22:43.108Z,96998.02
2017-07-23T14:25:10.763Z,97008.27
2017-07-23T14:27:38.399Z,97012.06
2017-07-23T14:30:06.034Z,97002.97
2017-07-23T14:32:33.660Z,97004.27
2017-07-23T14:35:01.699Z,97002.36
2017-07-23T14:37:29.294Z,96997.34
2017-07-23T14:39:56.947Z,97002.78
2017-07-23T14:42:24.611Z,96997.94
2017-07-23T14:44:52.260Z,97000.02
2017-07-23T14:47:19.892Z,96991.78
2017-07-23T14:49:47.568Z,96983.70
2017-07-23T14:52:15.245Z,96981.45
2017-07-23T14:54:42.864Z,96992.45
2017-07-23T14:57:10.773Z,96990.70
2017-07-23T14:59:38.392Z,96984.53
2017-07-23T15:02:06.043Z,96983.91
2017-07-23T15:04:33.672Z,96984.48
2017-07-23T15:07:01.438Z,96980.77
2017-07-23T15:09:29.361Z,96973.76
2017-07-23T15:11:57.123Z,96970.76
2017-07-23T15:14:24.754Z,96974.75
2017-07-23T15:16:52.428Z,96969.02
2017-07-23T15:19:20.076Z,96969.44
2017-07-23T15:21:48.047Z,96979.55
2017-07-23T15:24:15.689Z,96974.86
2017-07-23T15:26:43.313Z,96971.20
2017-07-23T15:29:11.351Z,96964.81
2017-07-23T15:31:39.292Z,96969.45
2017-07-23T15:34:06.948Z,96969.94
2017-07-23T15:36:34.777Z,96973.66
2017-07-23T15:39:02.437Z,96977.06
2017-07-23T15:41:30.063Z,96970.13
2017-07-23T15:43:58.298Z,96968.22
2017-07-23T15:46:25.943Z,96960.28
2017-07-23T15:48:53.551Z,96966.21
2017-07-23T15:51:21.175Z,96969.66
2017-07-23T15:53:48.803Z,96964.32
2017-07-23T15:56:16.464Z,96957.58
2017-07-23T15:58:44.099Z,96964.47
2017-07-23T16:01:11.768Z,96962.40
2017-07-23T16:03:39.410Z,96966.80
2017-07-23T16:06:07.101Z,96962.77
2017-07-23T16:08:34.735Z,96966.91
2017-07-23T16:11:02.418Z,96977.34
2017-07-23T16:13:30.053Z,96983.09
2017-07-23T16:15:57.770Z,96976.17
2017-07-23T16:18:25.414Z,96978.42
2017-07-23T16:20:53.410Z,96976.85
2017-07-23T16:23:21.057Z,96978.88
2017-07-23T16:25:48.708Z,96977.77
2017-07-23T16:28:16.333Z,96981.03
2017-07-23T16:30:44.006Z,96980.13
2017-07-23T16:33:11.616Z,96979.90
2017-07-23T16:35:39.290Z,96970.73
2017-07-23T16:38:06.997Z,96970.70
2017-07-23T16:40:35.591Z,96974.52
2017-07-23T16:43:03.237Z,96976.52
2017-07-23T16:45:31.119Z,96974.16
2017-07-23T16:47:58.788Z,96975.75
2017-07-23T16:50:26.557Z,96972.07
2017-07-23T16:52:54.420Z,96965.57
2017-07-23T16:55:22.044Z,96969.03
2017-07-23T16:57:49.699Z,96972.70
2017-07-23T17:00:17.477Z,96981.14
2017-07-23T17:02:45.149Z,96966.42
2017-07-23T17:05:13.423Z,96968.55
2017-07-23T17:07:41.064Z,96967.45
2017-07-23T17:10:08.672Z,96965.75
2017-07-23T17:12:37.241Z,96967.20
2017-07-23T17:15:04.842Z,96956.19
2017-07-23T17:17:32.983Z,96955.33
2017-07-23T17:20:00.737Z,96958.09
2017-07-23T17:22:28.411Z,96963.12
2017-07-23T17:24:56.067Z,96971.05
2017-07-23T17:27:23.740Z,96975.28
2017-07-23T17:29:51.370Z,96969.62
2017-07-23T17:32:19.039Z,96968.57
2017-07-23T17:34:46.832Z,96963.62
2017-07-23T17:37:14.491Z,96974.23
2017-07-23T17:39:42.236Z,96974.13
2017-07-23T17:42:09.899Z,96984.88
2017-07-23T17:44:37.562Z,96985.41
2017-07-23T17:47:05.254Z,96981.38
2017-07-23T17:49:32.913Z,96979.48
2017-07-23T17:52:00.574Z,96962.38
2017-07-23T17:54:28.209Z,96970.62
2017-07-23T17:56:55.877Z,96968.11
2017-07-23T17:59:23.589Z,96960.84
2017-07-23T18:01:51.932Z,96969.63
2017-07-23T18:04:19.558Z,96967.52
2017-07-23T18:06:47.240Z,96966.80
2017-07-23T18:09:14.860Z,96968.22
2017-07-23T18:11:42.535Z,96971.00
2017-07-23T18:14:10.181Z,96966.41
2017-07-23T18:16:37.805Z,96961.25
2017-07-23T18:19:05.572Z,96962.19
2017-07-23T18:21:33.220Z,96965.70
2017-07-23T18:24:00.973Z,96970.55
2017-07-23T18:26:28.604Z,96961.64
2017-07-23T18:28:56.234Z,96970.80
2017-07-23T18:31:23.852Z,96958.44
2017-07-23T18:33:51.546Z,96958.56
2017-07-23T18:36:19.181Z,96960.91
2017-07-23T18:38:47.122Z,96948.86
2017-07-23T18:41:14.828Z,96955.45
2017-07-23T18:43:42.564Z,96956.01
2017-07-23T18:46:10.268Z,96954.42
2017-07-23T18:48:37.928Z,96951.59
2017-07-23T18:51:05.571Z,96951.28
2017-07-23T18:53:33.192Z,96953.08
2017-07-23T18:56:01.379Z,96954.00
2017-07-23T18:58:29.007Z,96963.11
2017-07-23T19:00:56.614Z,96965.34
2017-07-23T19:03:24.268Z,96969.34
2017-07-23T19:05:52.187Z,96980.66
2017-07-23T19:08:19.827Z,96981.41
2017-07-23T19:10:47.476Z,96988.16
2017-07-23T19:13:15.515Z,96998.03
2017-07-23T19:15:43.149Z,97002.32
2017-07-23T19:18:10.811Z,97010.91
2017-07-23T19:20:38.462Z,97016.05
2017-07-23T19:23:06.100Z,97012.95
2017-07-23T19:25:33.753Z,97014.45
2017-07-23T19:28:01.420Z,97022.80
2017-07-23T19:30:29.084Z,97022.58
2017-07-23T19:32:56.705Z,97019.63
2017-07-23T19:35:24.470Z,97011.13
2017-07-23T19:37:52.104Z,97020.64
2017-07-23T19:40:20.137Z,97025.45
2017-07-23T19:42:47.816Z,97029.38
2017-07-23T19:45:15.447Z,97027.33
2017-07-23T19:47:43.086Z,97022.71
2017-07-23T19:50:10.712Z,97019.88
2017-07-23T19:52:38.353Z,97023.56
2017-07-23T19:55:06.169Z,97020.23
2017-07-23T19:57:34.112Z,97029.30
2017-07-23T20:00:01.746Z,97028.54
2017-07-23T20:02:29.436Z,97038.38
2017-07-23T20:04:57.122Z,97042.30
2017-07-23T20:07:24.720Z,97036.81
2017-07-23T20:09:52.463Z,97040.98
2017-07-23T20:12:20.248Z,97038.80
2017-07-23T20:14:48.159Z,97033.03
2017-07-23T20:17:15.850Z,97028.41
2017-07-23T20:19:43.529Z,97033.85
2017-07-23T20:22:11.212Z,97036.57
2017-07-23T20:24:39.011Z,97034.08
2017-07-23T20:27:06.675Z,97034.09
2017-07-23T20:29:34.510Z,97030.23
2017-07-23T20:32:02.170Z,97029.03
2017-07-23T20:34:29.812Z,97030.46
2017-07-23T20:36:57.439Z,97027.13
2017-07-23T20:39:25.411Z,97031.12
2017-07-23T20:41:53.029Z,97033.02
2017-07-23T20:44:20.679Z,97029.34
2017-07-23T20:46:48.329Z,97038.34
2017-07-23T20:49:15.998Z,97035.77
2017-07-23T20:51:45.006Z,97025.52
2017-07-23T20:54:12.681Z,97023.75
2017-07-23T20:56:40.621Z,97025.89
2017-07-23T20:59:08.238Z,97027.61
2017-07-23T21:01:35.865Z,97020.36
2017-07-23T21:04:03.560Z,97022.04
2017-07-23T21:06:31.227Z,97021.57
2017-07-23T21:08:58.869Z,97021.61
2017-07-23T21:11:26.517Z,97019.59
2017-07-23T21:13:54.257Z,97018.88
2017-07-23T21:16:21.947Z,97015.02
2017-07-23T21:18:49.596Z,97006.91
2017-07-23T21:21:17.326Z,97007.30
2017-07-23T21:23:44.955Z,97009.44
2017-07-23T21:26:12.862Z,97008.57
2017-07-23T21:28:40.621Z,97007.67
2017-07-23T21:31:08.217Z,97004.59
2017-07-23T21:33:35.898Z,96995.10
2017-07-23T21:36:03.585Z,96998.14
2017-07-23T21:38:31.246Z,96996.48
2017-07-23T21:40:58.901Z,97001.62
2017-07-23T21:43:26.533Z,96993.14
2017-07-23T21:45:54.199Z,96978.55
2017-07-23T21:48:22.097Z,96973.41
2017-07-23T21:50:49.894Z,96972.11
2017-07-23T21:53:17.488Z,96970.23
2017-07-23T21:55:45.190Z,96977.14
2017-07-23T21:58:12.860Z,96978.73
2017-07-23T22:00:40.854Z,96982.16
2017-07-23T22:03:08.476Z,96981.64
2017-07-23T22:05:36.075Z,96980.31
2017-07-23T22:08:03.742Z,96973.02
2017-07-23T22:10:31.367Z,96975.55
2017-07-23T22:12:59.003Z,96975.11
2017-07-23T22:15:26.627Z,96969.54
2017-07-23T22:17:54.636Z,96977.70
2017-07-23T22:20:22.256Z,96975.51
2017-07-23T22:22:50.019Z,96978.55
2017-07-23T22:25:17.695Z,96977.22
2017-07-23T22:27:45.332Z,96975.55
2017-07-23T22:30:12.969Z,96969.17
2017-07-23T22:32:40.609Z,96968.00
2017-07-23T22:35:08.296Z,96964.62
2017-07-23T22:37:36.021Z,96963.47
2017-07-23T22:40:03.650Z,96959.27
2017-07-23T22:42:31.446Z,96950.39
2017-07-23T22:44:59.079Z,96941.87
2017-07-23T22:47:27.005Z,96948.67
2017-07-23T22:49:54.649Z,96938.34
2017-07-23T22:52:22.295Z,96932.81
2017-07-23T22:54:50.048Z,96938.34
2017-07-23T22:57:17.676Z,96950.11
2017-07-23T22:59:45.318Z,96952.86
2017-07-23T23:02:12.991Z,96948.19
2017-07-23T23:04:40.901Z,96938.50
2017-07-23T23:07:08.532Z,96944.28
2017-07-23T23:09:36.338Z,96928.47
2017-07-23T23:12:04.061Z,96912.95
2017-07-23T23:14:31.729Z,96927.05
2017-07-23T23:16:59.392Z,96936.48
2017-07-23T23:19:27.047Z,96933.91
2017-07-23T23:21:54.665Z,96924.95
2017-07-23T23:24:22.460Z,96923.75
2017-07-23T23:26:50.303Z,96923.67
2017-07-23T23:29:17.958Z,96918.09
2017-07-23T23:31:45.589Z,96909.91
2017-07-23T23:34:13.221Z,96910.30
2017-07-23T23:36:40.885Z,96899.63
2017-07-23T23:39:08.882Z,96896.20
2017-07-23T23:41:36.517Z,96897.48
2017-07-23T23:44:04.160Z,96897.02
2017-07-23T23:46:31.898Z,96899.24
2017-07-23T23:48:59.667Z,96896.71
2017-07-23T23:51:27.327Z,96891.09
2017-07-23T23:53:54.951Z,96878.33
2017-07-23T23:56:22.598Z,96865.52
2017-07-23T23:58:50.225Z,96857.42
